Terminal Aerodrome Forecast
Issued by NWS

Home | Current Version | Previous Version | Text Only | Print | Product List | Glossary On
Versions: 1 2 3 4 5 6 7 8 9 10 11 12 13 14 15 16 17 18 19 20
409
FTUS43 KMQT 281902 AAC
TAFSAW
TAF AMD
KSAW 281902Z 2819/2918 25015KT P6SM BKN035
     FM282100 27009KT P6SM BKN035
     FM290000 31006KT P6SM BKN035
     FM290200 30005KT P6SM BKN050
     FM290500 31004KT P6SM SCT100=

USA.gov is the U.S. government's official web portal to all federal, state and local government web resources and services.